createdAt,value
2022-11-18T00:00:51.029Z,0.00
2022-11-18T00:01:51.014Z,0.00
2022-11-18T00:02:51.002Z,0.00
2022-11-18T00:03:51.005Z,0.00
2022-11-18T00:04:50.957Z,0.00
2022-11-18T00:05:50.921Z,0.00
2022-11-18T00:06:50.926Z,0.00
2022-11-18T00:07:50.888Z,0.00
2022-11-18T00:08:50.911Z,0.00
2022-11-18T00:09:50.854Z,0.00
2022-11-18T00:10:50.854Z,0.00
2022-11-18T00:11:50.817Z,0.00
2022-11-18T00:12:50.818Z,0.00
2022-11-18T00:13:50.805Z,0.00
2022-11-18T00:14:50.805Z,0.00
2022-11-18T00:15:50.753Z,0.00
2022-11-18T00:16:50.739Z,0.00
2022-11-18T00:17:50.709Z,0.00
2022-11-18T00:18:50.717Z,0.00
2022-11-18T00:19:50.694Z,0.00
2022-11-18T00:20:50.678Z,0.00
2022-11-18T00:21:50.634Z,0.00
2022-11-18T00:22:50.633Z,0.00
2022-11-18T00:23:50.604Z,0.00
2022-11-18T00:24:50.652Z,0.00
2022-11-18T00:25:50.564Z,0.00
2022-11-18T00:26:50.563Z,0.00
2022-11-18T00:27:50.528Z,0.00
2022-11-18T00:28:50.530Z,0.00
2022-11-18T00:29:50.493Z,0.00
2022-11-18T00:30:50.565Z,0.00
2022-11-18T00:31:50.459Z,0.00
2022-11-18T00:32:50.452Z,0.00
2022-11-18T00:33:50.418Z,0.00
2022-11-18T00:34:50.422Z,0.00
2022-11-18T00:35:50.389Z,0.00
2022-11-18T00:36:50.383Z,0.00
2022-11-18T00:37:50.356Z,0.00
2022-11-18T00:38:50.348Z,0.00
2022-11-18T00:39:50.412Z,0.00
2022-11-18T00:40:50.310Z,0.00
2022-11-18T00:41:50.281Z,0.00
2022-11-18T00:42:50.284Z,0.00
2022-11-18T00:43:50.240Z,0.00
2022-11-18T00:44:50.251Z,0.00
2022-11-18T00:45:50.215Z,0.00
2022-11-18T00:46:50.244Z,0.00
2022-11-18T00:47:50.173Z,0.00
2022-11-18T00:48:50.214Z,0.00
2022-11-18T00:49:50.145Z,0.00
2022-11-18T00:50:50.136Z,0.00
2022-11-18T00:51:50.170Z,0.00
2022-11-18T00:52:50.099Z,0.00
2022-11-18T00:53:50.062Z,0.00
2022-11-18T00:54:50.062Z,0.00
2022-11-18T00:55:50.026Z,0.00
2022-11-18T00:56:50.027Z,0.00
2022-11-18T00:57:50.036Z,0.00
2022-11-18T00:58:50.021Z,0.00
2022-11-18T00:59:49.988Z,0.00
2022-11-18T01:00:50.005Z,0.00
2022-11-18T01:01:49.965Z,0.00
2022-11-18T01:02:49.919Z,0.00
2022-11-18T01:03:49.912Z,0.00
2022-11-18T01:04:49.881Z,0.00
2022-11-18T01:05:49.853Z,0.00
2022-11-18T01:06:49.845Z,0.00
2022-11-18T01:07:49.810Z,0.00
2022-11-18T01:08:49.864Z,0.00
2022-11-18T01:09:49.781Z,0.00
2022-11-18T01:10:49.775Z,0.00
2022-11-18T01:11:49.748Z,0.00
2022-11-18T01:12:54.078Z,0.00
2022-11-18T01:13:49.731Z,0.00
2022-11-18T01:14:49.722Z,0.00
2022-11-18T01:15:49.701Z,0.00
2022-11-18T01:16:49.676Z,0.00
2022-11-18T01:17:49.670Z,0.00
2022-11-18T01:18:49.633Z,0.00
2022-11-18T01:19:49.628Z,0.00
2022-11-18T01:20:49.597Z,0.00
2022-11-18T01:21:49.563Z,0.00
2022-11-18T01:22:49.591Z,0.00
2022-11-18T01:23:49.524Z,0.00
2022-11-18T01:24:49.524Z,0.00
2022-11-18T01:25:49.491Z,0.00
2022-11-18T01:26:49.522Z,0.00
2022-11-18T01:27:49.489Z,0.00
2022-11-18T01:28:49.454Z,0.00
2022-11-18T01:29:49.417Z,0.00
2022-11-18T01:30:49.420Z,0.00
2022-11-18T01:32:22.236Z,0.00
2022-11-18T01:32:49.406Z,0.00
2022-11-18T01:33:49.348Z,0.00
2022-11-18T01:34:49.349Z,0.00
2022-11-18T01:35:49.327Z,0.00
2022-11-18T01:36:49.311Z,0.00
2022-11-18T01:37:49.274Z,0.00
2022-11-18T01:38:49.274Z,0.00
2022-11-18T01:39:49.240Z,0.00
2022-11-18T01:40:49.242Z,0.00
2022-11-18T01:41:49.254Z,0.00
2022-11-18T01:42:49.201Z,0.00
2022-11-18T01:43:49.169Z,0.00
2022-11-18T01:44:49.167Z,0.00
2022-11-18T01:45:49.137Z,0.00
2022-11-18T01:46:49.127Z,0.00
2022-11-18T01:47:49.151Z,0.00
2022-11-18T01:48:49.091Z,0.00
2022-11-18T01:49:49.073Z,0.00
2022-11-18T01:50:49.083Z,0.00
2022-11-18T01:51:49.028Z,0.00
2022-11-18T01:52:51.829Z,0.00
2022-11-18T01:53:48.992Z,0.00
2022-11-18T01:54:48.986Z,0.00
2022-11-18T01:55:48.958Z,0.00
2022-11-18T01:56:48.950Z,0.00
2022-11-18T01:57:48.924Z,0.00
2022-11-18T01:58:48.947Z,0.00
2022-11-18T01:59:48.886Z,0.00
2022-11-18T02:00:48.880Z,0.00
2022-11-18T02:01:48.914Z,0.00
2022-11-18T02:02:48.860Z,0.00
2022-11-18T02:03:48.808Z,0.00
2022-11-18T02:04:48.808Z,0.00
2022-11-18T02:05:48.801Z,0.00
2022-11-18T02:06:48.768Z,0.00
2022-11-18T02:07:48.736Z,0.00
2022-11-18T02:08:48.732Z,0.00
2022-11-18T02:09:48.701Z,0.00
2022-11-18T02:10:48.740Z,0.00
2022-11-18T02:11:48.721Z,0.00
2022-11-18T02:12:48.661Z,0.00
2022-11-18T02:13:48.628Z,0.00
2022-11-18T02:14:48.629Z,0.00
2022-11-18T02:15:48.625Z,0.00
2022-11-18T02:16:48.599Z,0.00
2022-11-18T02:17:48.557Z,0.00
2022-11-18T02:18:48.554Z,0.00
2022-11-18T02:19:48.521Z,0.00
2022-11-18T02:20:48.550Z,0.00
2022-11-18T02:21:48.489Z,0.00
2022-11-18T02:22:48.488Z,0.00
2022-11-18T02:23:48.476Z,0.00
2022-11-18T02:24:48.448Z,0.00
2022-11-18T02:25:48.415Z,0.00
2022-11-18T02:26:48.430Z,0.00
2022-11-18T02:27:48.409Z,0.00
2022-11-18T02:28:48.376Z,0.00
2022-11-18T02:29:48.346Z,0.00
2022-11-18T02:30:48.340Z,0.00
2022-11-18T02:31:48.312Z,0.00
2022-11-18T02:32:48.302Z,0.00
2022-11-18T02:33:48.283Z,0.00
2022-11-18T02:34:48.283Z,0.00
2022-11-18T02:35:48.236Z,0.00
2022-11-18T02:36:48.232Z,0.00
2022-11-18T02:37:48.199Z,0.00
2022-11-18T02:38:48.199Z,0.00
2022-11-18T02:39:48.205Z,0.00
2022-11-18T02:40:48.163Z,0.00
2022-11-18T02:41:48.130Z,0.00
2022-11-18T02:42:48.130Z,0.00
2022-11-18T02:43:48.110Z,0.00
2022-11-18T02:44:48.094Z,0.00
2022-11-18T02:45:48.059Z,0.00
2022-11-18T02:46:48.056Z,0.00
2022-11-18T02:47:48.028Z,0.00
2022-11-18T02:48:48.041Z,0.00
2022-11-18T02:49:47.990Z,0.00
2022-11-18T02:50:47.988Z,0.00
2022-11-18T02:51:48.007Z,0.00
2022-11-18T02:52:47.948Z,0.00
2022-11-18T02:53:47.912Z,0.00
2022-11-18T02:54:47.912Z,0.00
2022-11-18T02:55:47.891Z,0.00
2022-11-18T02:56:47.880Z,0.00
2022-11-18T02:57:47.907Z,0.00
2022-11-18T02:58:47.854Z,0.00
2022-11-18T02:59:47.818Z,0.00
2022-11-18T03:00:47.811Z,0.00
2022-11-18T03:01:47.880Z,0.00
2022-11-18T03:02:47.767Z,0.00
2022-11-18T03:03:47.830Z,0.00
2022-11-18T03:04:47.748Z,0.00
2022-11-18T03:05:47.700Z,0.00
2022-11-18T03:06:47.732Z,0.00
2022-11-18T03:07:47.663Z,0.00
2022-11-18T03:08:47.662Z,0.00
2022-11-18T03:09:47.658Z,0.00
2022-11-18T03:10:47.634Z,0.00
2022-11-18T03:11:47.596Z,0.00
2022-11-18T03:12:47.594Z,0.00
2022-11-18T03:13:47.555Z,0.00
2022-11-18T03:14:47.592Z,0.00
2022-11-18T03:15:47.524Z,0.00
2022-11-18T03:16:47.516Z,0.00
2022-11-18T03:17:47.500Z,0.00
2022-11-18T03:18:47.487Z,0.00
2022-11-18T03:19:47.548Z,0.00
2022-11-18T03:20:47.482Z,0.00
2022-11-18T03:21:47.416Z,0.00
2022-11-18T03:22:47.415Z,0.00
2022-11-18T03:23:47.380Z,0.00
2022-11-18T03:24:47.377Z,0.00
2022-11-18T03:25:47.373Z,0.00
2022-11-18T03:26:47.339Z,0.00
2022-11-18T03:27:47.312Z,0.00
2022-11-18T03:28:47.311Z,0.00
2022-11-18T03:29:47.275Z,0.00
2022-11-18T03:30:47.346Z,0.00
2022-11-18T03:31:47.239Z,0.00
2022-11-18T03:32:47.232Z,0.00
2022-11-18T03:33:47.201Z,0.00
2022-11-18T03:34:47.197Z,0.00
2022-11-18T03:35:47.168Z,0.00
2022-11-18T03:36:51.386Z,0.00
2022-11-18T03:37:47.133Z,0.00
2022-11-18T03:38:47.134Z,0.00
2022-11-18T03:39:47.101Z,0.00
2022-11-18T03:40:47.098Z,0.00
2022-11-18T03:41:47.057Z,0.00
2022-11-18T03:42:47.073Z,0.00
2022-11-18T03:43:47.025Z,0.00
2022-11-18T03:44:52.083Z,0.00
2022-11-18T03:45:46.985Z,0.00
2022-11-18T03:46:47.016Z,0.00
2022-11-18T03:47:46.984Z,0.00
2022-11-18T03:48:46.949Z,0.00
2022-11-18T03:49:46.944Z,0.00
2022-11-18T03:50:46.913Z,0.00
2022-11-18T03:51:46.878Z,0.00
2022-11-18T03:52:46.900Z,0.00
2022-11-18T03:53:46.923Z,0.00
2022-11-18T03:54:46.831Z,0.00
2022-11-18T03:55:46.855Z,0.00
2022-11-18T03:56:46.790Z,0.00
2022-11-18T03:57:46.789Z,0.00
2022-11-18T03:58:46.756Z,0.00
2022-11-18T03:59:46.788Z,0.00
2022-11-18T04:00:46.715Z,0.00
2022-11-18T04:01:46.764Z,0.00
2022-11-18T04:02:46.685Z,0.00
2022-11-18T04:03:46.695Z,0.00
2022-11-18T04:04:46.671Z,0.00
2022-11-18T04:05:46.677Z,0.00
2022-11-18T04:06:46.614Z,0.00
2022-11-18T04:07:46.609Z,0.00
2022-11-18T04:08:46.575Z,0.00
2022-11-18T04:09:46.582Z,0.00
2022-11-18T04:10:46.552Z,0.00
2022-11-18T04:11:46.537Z,0.00
2022-11-18T04:12:46.528Z,0.00
2022-11-18T04:13:46.501Z,0.00
2022-11-18T04:14:46.486Z,0.00
2022-11-18T04:15:46.467Z,0.00
2022-11-18T04:16:46.435Z,0.00
2022-11-18T04:17:46.483Z,0.00
2022-11-18T04:18:46.399Z,0.00
2022-11-18T04:19:46.392Z,0.00
2022-11-18T04:20:46.365Z,0.00
2022-11-18T04:21:46.365Z,0.00
2022-11-18T04:22:46.323Z,0.00
2022-11-18T04:23:46.326Z,0.00
2022-11-18T04:24:46.291Z,0.00
2022-11-18T04:25:46.288Z,0.00
2022-11-18T04:26:46.257Z,0.00
2022-11-18T04:27:46.275Z,0.00
2022-11-18T04:28:46.418Z,0.00
2022-11-18T04:29:46.218Z,0.00
2022-11-18T04:30:46.185Z,0.00
2022-11-18T04:31:46.177Z,0.00
2022-11-18T04:32:46.145Z,0.00
2022-11-18T04:33:46.139Z,0.00
2022-11-18T04:34:46.138Z,0.00
2022-11-18T04:35:46.121Z,0.00
2022-11-18T04:36:46.081Z,0.00
2022-11-18T04:37:46.100Z,0.00
2022-11-18T04:38:46.038Z,0.00
2022-11-18T04:39:46.130Z,0.00
2022-11-18T04:40:46.005Z,0.00
2022-11-18T04:41:46.023Z,0.00
2022-11-18T04:42:45.965Z,0.00
2022-11-18T04:43:45.963Z,0.00
2022-11-18T04:44:45.958Z,0.00
2022-11-18T04:45:46.001Z,0.00
2022-11-18T04:46:45.914Z,0.00
2022-11-18T04:47:45.910Z,0.00
2022-11-18T04:48:45.861Z,0.00
2022-11-18T04:49:45.882Z,0.00
2022-11-18T04:50:45.827Z,0.00
2022-11-18T04:51:45.847Z,0.00
2022-11-18T04:52:45.787Z,0.00
2022-11-18T04:53:45.791Z,0.00
2022-11-18T04:54:45.752Z,0.00
2022-11-18T04:55:45.753Z,0.00
2022-11-18T04:56:49.147Z,0.00
2022-11-18T04:57:45.712Z,0.00
2022-11-18T04:58:45.683Z,0.00
2022-11-18T04:59:45.680Z,0.00
2022-11-18T05:00:45.670Z,0.00
2022-11-18T05:01:45.747Z,0.00
2022-11-18T05:02:45.613Z,0.00
2022-11-18T05:03:50.416Z,0.00
2022-11-18T05:04:45.570Z,0.00
2022-11-18T05:05:45.571Z,0.00
2022-11-18T05:06:45.616Z,0.00
2022-11-18T05:07:45.593Z,0.00
2022-11-18T05:08:45.513Z,0.00
2022-11-18T05:09:45.505Z,0.00
2022-11-18T05:10:45.466Z,0.00
2022-11-18T05:11:45.464Z,0.00
2022-11-18T05:12:45.430Z,0.00
2022-11-18T05:13:45.431Z,0.00
2022-11-18T05:14:49.966Z,0.00
2022-11-18T05:15:45.394Z,0.00
2022-11-18T05:16:45.360Z,0.00
2022-11-18T05:17:45.359Z,0.00
2022-11-18T05:18:45.323Z,0.00
2022-11-18T05:19:45.320Z,0.00
2022-11-18T05:20:45.288Z,0.00
2022-11-18T05:21:45.292Z,0.00
2022-11-18T05:22:45.306Z,0.00
2022-11-18T05:23:45.256Z,0.00
2022-11-18T05:24:45.216Z,0.00
2022-11-18T05:25:45.213Z,0.00
2022-11-18T05:26:45.179Z,0.00
2022-11-18T05:27:45.182Z,0.00
2022-11-18T05:28:45.170Z,0.00
2022-11-18T05:29:45.144Z,0.00
2022-11-18T05:30:45.109Z,0.00
2022-11-18T05:31:45.105Z,0.00
2022-11-18T05:32:45.094Z,0.00
2022-11-18T05:33:45.072Z,0.00
2022-11-18T05:34:45.039Z,0.00
2022-11-18T05:35:45.034Z,0.00
2022-11-18T05:36:45.001Z,0.00
2022-11-18T05:37:45.061Z,0.00
2022-11-18T05:38:44.964Z,0.00
2022-11-18T05:39:44.961Z,0.00
2022-11-18T05:40:44.947Z,0.00
2022-11-18T05:41:44.929Z,0.00
2022-11-18T05:42:44.894Z,0.00
2022-11-18T05:43:44.928Z,0.00
2022-11-18T05:44:44.860Z,0.00
2022-11-18T05:45:44.856Z,0.00
2022-11-18T05:46:44.818Z,0.00
2022-11-18T05:47:44.844Z,0.00
2022-11-18T05:48:44.814Z,0.00
2022-11-18T05:49:44.787Z,0.00
2022-11-18T05:50:44.772Z,0.00
2022-11-18T05:51:44.748Z,0.00
2022-11-18T05:52:44.716Z,0.00
2022-11-18T05:53:44.720Z,0.00
2022-11-18T05:54:44.733Z,0.00
2022-11-18T05:55:44.678Z,0.00
2022-11-18T05:56:44.651Z,0.00
2022-11-18T05:57:44.637Z,0.00
2022-11-18T05:58:44.603Z,0.00
2022-11-18T05:59:44.650Z,0.00
2022-11-18T06:00:44.594Z,0.00
2022-11-18T06:01:44.567Z,0.00
2022-11-18T06:02:44.568Z,0.00
2022-11-18T06:03:44.528Z,0.00
2022-11-18T06:04:44.495Z,0.00
2022-11-18T06:05:44.518Z,0.00
2022-11-18T06:06:44.458Z,0.00
2022-11-18T06:07:44.549Z,0.00
2022-11-18T06:08:44.423Z,0.00
2022-11-18T06:09:44.418Z,0.00
2022-11-18T06:10:44.389Z,0.00
2022-11-18T06:11:44.384Z,0.00
2022-11-18T06:12:44.360Z,0.00
2022-11-18T06:13:44.351Z,0.00
2022-11-18T06:14:44.312Z,0.00
2022-11-18T06:15:44.332Z,0.00
2022-11-18T06:16:44.278Z,0.00
2022-11-18T06:17:44.274Z,0.00
2022-11-18T06:18:44.248Z,0.00
2022-11-18T06:19:44.246Z,0.00
2022-11-18T06:20:44.210Z,0.00
2022-11-18T06:21:44.207Z,0.00
2022-11-18T06:22:46.666Z,0.00
2022-11-18T06:23:44.165Z,0.00
2022-11-18T06:24:44.154Z,4.00
2022-11-18T06:25:44.178Z,0.00
2022-11-18T06:26:44.102Z,0.00
2022-11-18T06:27:44.104Z,4.00
2022-11-18T06:28:44.063Z,0.00
2022-11-18T06:29:44.071Z,4.00
2022-11-18T06:30:44.030Z,8.00
2022-11-18T06:31:44.083Z,8.00
2022-11-18T06:32:43.990Z,8.00
2022-11-18T06:33:44.042Z,8.00
2022-11-18T06:34:43.989Z,12.00
2022-11-18T06:35:43.949Z,8.00
2022-11-18T06:36:43.929Z,16.00
2022-11-18T06:37:43.940Z,12.00
2022-11-18T06:38:43.882Z,16.00
2022-11-18T06:39:43.909Z,20.00
2022-11-18T06:40:43.845Z,20.00
2022-11-18T06:41:43.842Z,24.00
2022-11-18T06:42:43.835Z,28.00
2022-11-18T06:43:43.812Z,32.00
2022-11-18T06:44:43.841Z,32.00
2022-11-18T06:45:43.780Z,36.00
2022-11-18T06:46:43.737Z,36.00
2022-11-18T06:47:43.893Z,40.00
2022-11-18T06:48:43.708Z,44.00
2022-11-18T06:49:43.700Z,48.00
2022-11-18T06:50:43.662Z,52.00
2022-11-18T06:51:43.687Z,52.00
2022-11-18T06:52:43.634Z,56.00
2022-11-18T06:53:43.626Z,60.00
2022-11-18T06:54:43.593Z,68.00
2022-11-18T06:55:43.592Z,72.00
2022-11-18T06:56:43.584Z,72.00
2022-11-18T06:57:43.553Z,80.00
2022-11-18T06:58:43.544Z,88.00
2022-11-18T06:59:43.513Z,100.00
2022-11-18T07:00:43.513Z,96.00
2022-11-18T07:01:43.507Z,104.00
2022-11-18T07:02:43.449Z,108.00
2022-11-18T07:03:43.443Z,112.00
2022-11-18T07:04:43.410Z,108.00
2022-11-18T07:05:43.409Z,116.00
2022-11-18T07:06:43.465Z,132.00
2022-11-18T07:07:43.413Z,136.00
2022-11-18T07:08:43.336Z,132.00
2022-11-18T07:09:43.336Z,140.00
2022-11-18T07:10:43.299Z,148.00
2022-11-18T07:11:43.305Z,152.00
2022-11-18T07:12:43.281Z,144.00
2022-11-18T07:13:43.989Z,140.00
2022-11-18T07:14:43.229Z,132.00
2022-11-18T07:15:43.236Z,132.00
2022-11-18T07:16:43.188Z,132.00
2022-11-18T07:17:43.202Z,132.00
2022-11-18T07:18:43.194Z,136.00
2022-11-18T07:19:43.153Z,132.00
2022-11-18T07:20:43.116Z,136.00
2022-11-18T07:21:43.117Z,140.00
2022-11-18T07:22:43.085Z,148.00
2022-11-18T07:23:43.111Z,172.00
2022-11-18T07:24:43.071Z,168.00
2022-11-18T07:25:45.374Z,184.00
2022-11-18T07:26:43.008Z,212.00
2022-11-18T07:27:43.005Z,240.00
2022-11-18T07:28:43.007Z,276.00
2022-11-18T07:29:43.001Z,296.00
2022-11-18T07:30:42.938Z,340.00
2022-11-18T07:31:42.934Z,328.00
2022-11-18T07:32:42.907Z,376.00
2022-11-18T07:33:42.898Z,416.00
2022-11-18T07:34:42.882Z,452.00
2022-11-18T07:35:42.860Z,496.00
2022-11-18T07:36:42.833Z,528.00
2022-11-18T07:37:42.824Z,580.00
2022-11-18T07:38:42.791Z,552.00
2022-11-18T07:39:42.794Z,580.00
2022-11-18T07:40:42.756Z,580.00
2022-11-18T07:41:42.756Z,556.00
2022-11-18T07:42:42.907Z,564.00
2022-11-18T07:43:42.790Z,540.00
2022-11-18T07:44:42.728Z,560.00
2022-11-18T07:45:42.688Z,564.00
2022-11-18T07:46:42.681Z,532.00
2022-11-18T07:47:42.661Z,524.00
2022-11-18T07:48:42.615Z,508.00
2022-11-18T07:49:42.701Z,508.00
2022-11-18T07:50:47.011Z,532.00
2022-11-18T07:51:42.612Z,504.00
2022-11-18T07:52:42.539Z,488.00
2022-11-18T07:53:42.585Z,488.00
2022-11-18T07:54:42.578Z,496.00
2022-11-18T07:55:42.507Z,504.00
2022-11-18T07:56:42.496Z,532.00
2022-11-18T07:57:42.464Z,528.00
2022-11-18T07:58:42.484Z,544.00
2022-11-18T07:59:42.440Z,548.00
2022-11-18T08:00:42.394Z,516.00
2022-11-18T08:01:42.452Z,536.00
2022-11-18T08:02:42.365Z,548.00
2022-11-18T08:03:42.355Z,568.00
2022-11-18T08:04:42.371Z,584.00
2022-11-18T08:05:42.366Z,576.00
2022-11-18T08:06:42.308Z,592.00
2022-11-18T08:07:42.348Z,584.00
2022-11-18T08:08:42.262Z,620.00
2022-11-18T08:09:42.266Z,688.00
2022-11-18T08:10:42.236Z,772.00
2022-11-18T08:11:42.210Z,724.00
2022-11-18T08:12:42.203Z,748.00
2022-11-18T08:13:42.163Z,700.00
2022-11-18T08:14:42.184Z,692.00
2022-11-18T08:15:42.136Z,744.00
2022-11-18T08:16:42.122Z,780.00
2022-11-18T08:17:42.117Z,768.00
2022-11-18T08:18:42.081Z,856.00
2022-11-18T08:19:42.050Z,852.00
2022-11-18T08:20:42.046Z,868.00
2022-11-18T08:21:42.022Z,812.00
2022-11-18T08:22:42.074Z,836.00
2022-11-18T08:23:42.854Z,832.00
2022-11-18T08:24:41.983Z,968.00
2022-11-18T08:25:41.985Z,932.00
2022-11-18T08:26:41.949Z,988.00
2022-11-18T08:27:41.911Z,1076.00
2022-11-18T08:28:42.016Z,996.00
2022-11-18T08:29:41.869Z,1056.00
2022-11-18T08:30:41.870Z,1008.00
2022-11-18T08:31:41.875Z,1176.00
2022-11-18T08:32:41.835Z,1136.00
2022-11-18T08:33:41.797Z,1100.00
2022-11-18T08:34:41.797Z,1080.00
2022-11-18T08:35:41.761Z,1084.00
2022-11-18T08:36:41.791Z,1032.00
2022-11-18T08:37:41.741Z,1004.00
2022-11-18T08:38:41.729Z,1048.00
2022-11-18T08:39:41.691Z,1092.00
2022-11-18T08:40:41.686Z,1120.00
2022-11-18T08:41:41.663Z,1184.00
2022-11-18T08:42:41.649Z,1172.00
2022-11-18T08:43:41.618Z,1168.00
2022-11-18T08:44:41.636Z,1236.00
2022-11-18T08:45:41.579Z,1292.00
2022-11-18T08:46:41.615Z,1208.00
2022-11-18T08:47:41.581Z,1348.00
2022-11-18T08:48:41.550Z,1304.00
2022-11-18T08:49:41.522Z,1340.00
2022-11-18T08:50:41.537Z,1264.00
2022-11-18T08:51:41.480Z,1172.00
2022-11-18T08:52:41.468Z,1100.00
2022-11-18T08:53:41.433Z,1120.00
2022-11-18T08:54:41.436Z,1112.00
2022-11-18T08:55:41.426Z,1184.00
2022-11-18T08:56:41.396Z,992.00
2022-11-18T08:57:41.370Z,1008.00
2022-11-18T08:58:41.360Z,1036.00
2022-11-18T08:59:41.326Z,996.00
2022-11-18T09:00:41.410Z,1120.00
2022-11-18T09:01:41.339Z,1224.00
2022-11-18T09:02:41.292Z,1276.00
2022-11-18T09:03:41.253Z,1352.00
2022-11-18T09:04:41.254Z,1476.00
2022-11-18T09:05:41.547Z,1532.00
2022-11-18T09:06:41.516Z,1396.00
2022-11-18T09:07:41.243Z,1324.00
2022-11-18T09:08:41.179Z,1252.00
2022-11-18T09:09:41.151Z,1112.00
2022-11-18T09:10:41.157Z,1052.00
2022-11-18T09:11:41.110Z,1020.00
2022-11-18T09:12:41.125Z,932.00
2022-11-18T09:14:04.296Z,920.00
2022-11-18T09:15:41.039Z,908.00
2022-11-18T09:16:41.037Z,972.00
2022-11-18T09:17:41.003Z,968.00
2022-11-18T09:18:41.012Z,1004.00
2022-11-18T09:19:47.186Z,1008.00
2022-11-18T09:20:40.963Z,996.00
2022-11-18T09:21:41.184Z,976.00
2022-11-18T09:22:40.930Z,976.00
2022-11-18T09:23:40.928Z,952.00
2022-11-18T09:24:40.897Z,1008.00
2022-11-18T09:25:40.860Z,1020.00
2022-11-18T09:26:40.861Z,1052.00
2022-11-18T09:27:40.830Z,1048.00
2022-11-18T09:28:40.820Z,1048.00
2022-11-18T09:29:40.813Z,1144.00
2022-11-18T09:30:40.785Z,1208.00
2022-11-18T09:31:40.761Z,1196.00
2022-11-18T09:32:40.781Z,1208.00
2022-11-18T09:33:40.712Z,1256.00
2022-11-18T09:34:40.725Z,1308.00
2022-11-18T09:35:40.738Z,1344.00
2022-11-18T09:36:40.678Z,1296.00
2022-11-18T09:37:40.645Z,1424.00
2022-11-18T09:38:40.644Z,1416.00
2022-11-18T09:39:40.604Z,1396.00
2022-11-18T09:40:40.630Z,1348.00
2022-11-18T09:41:40.570Z,1340.00
2022-11-18T09:42:40.570Z,1504.00
2022-11-18T09:43:40.578Z,1376.00
2022-11-18T09:44:40.533Z,1304.00
2022-11-18T09:45:40.723Z,1360.00
2022-11-18T09:46:40.586Z,1260.00
2022-11-18T09:47:40.553Z,1188.00
2022-11-18T09:48:40.557Z,1128.00
2022-11-18T09:49:40.545Z,1076.00
2022-11-18T09:50:55.752Z,1048.00
2022-11-18T09:51:40.592Z,1088.00
2022-11-18T09:52:40.402Z,1084.00
2022-11-18T09:53:40.476Z,1064.00
2022-11-18T09:54:40.475Z,1100.00
2022-11-18T09:55:40.468Z,1152.00
2022-11-18T09:56:40.701Z,1152.00
2022-11-18T09:57:40.296Z,1140.00
2022-11-18T09:58:40.404Z,1156.00
2022-11-18T09:59:40.399Z,1208.00
2022-11-18T10:00:40.384Z,1228.00
2022-11-18T10:01:40.490Z,1224.00
2022-11-18T10:02:40.321Z,1252.00
2022-11-18T10:03:40.296Z,1292.00
2022-11-18T10:04:40.256Z,1400.00
2022-11-18T10:05:40.274Z,1448.00
2022-11-18T10:06:40.340Z,1360.00
2022-11-18T10:07:40.278Z,1368.00
2022-11-18T10:08:40.120Z,1288.00
2022-11-18T10:09:40.184Z,1240.00
2022-11-18T10:10:40.188Z,1108.00
2022-11-18T10:11:42.082Z,1036.00
2022-11-18T10:12:40.128Z,956.00
2022-11-18T10:13:40.115Z,860.00
2022-11-18T10:14:40.108Z,836.00
2022-11-18T10:15:40.031Z,800.00
2022-11-18T10:16:40.071Z,772.00
2022-11-18T10:17:40.030Z,752.00
2022-11-18T10:19:39.985Z,724.00
2022-11-18T10:20:39.972Z,780.00
2022-11-18T10:21:40.106Z,860.00
2022-11-18T10:22:39.971Z,880.00
2022-11-18T10:23:39.828Z,908.00
2022-11-18T10:24:39.916Z,888.00
2022-11-18T10:25:39.864Z,896.00
2022-11-18T10:26:39.911Z,896.00
2022-11-18T10:27:39.962Z,936.00
2022-11-18T10:28:39.840Z,1048.00
2022-11-18T10:29:39.909Z,956.00
2022-11-18T10:30:39.823Z,912.00
2022-11-18T10:31:39.760Z,1000.00
2022-11-18T10:32:39.730Z,1004.00
2022-11-18T10:33:39.759Z,1016.00
2022-11-18T10:34:39.850Z,996.00
2022-11-18T10:35:39.650Z,988.00
2022-11-18T10:36:39.810Z,1012.00
2022-11-18T10:38:06.187Z,1048.00
2022-11-18T10:38:39.657Z,1156.00
2022-11-18T10:39:39.750Z,1212.00
2022-11-18T10:40:39.543Z,1148.00
2022-11-18T10:41:39.614Z,1056.00
2022-11-18T10:42:39.593Z,1052.00
2022-11-18T10:43:39.550Z,956.00
2022-11-18T10:44:39.639Z,1016.00
2022-11-18T10:45:39.510Z,1072.00
2022-11-18T10:46:39.536Z,1044.00
2022-11-18T10:47:39.466Z,1032.00
2022-11-18T10:48:39.508Z,1016.00
2022-11-18T10:49:39.387Z,964.00
2022-11-18T10:50:39.548Z,920.00
2022-11-18T10:51:39.406Z,1124.00
2022-11-18T10:52:39.390Z,1068.00
2022-11-18T10:53:39.379Z,1072.00
2022-11-18T10:54:39.333Z,908.00
2022-11-18T10:55:39.302Z,880.00
2022-11-18T10:56:39.448Z,848.00
2022-11-18T10:57:39.323Z,868.00
2022-11-18T10:58:39.311Z,856.00
2022-11-18T10:59:39.187Z,832.00
2022-11-18T11:00:39.302Z,772.00
2022-11-18T11:01:39.330Z,772.00
2022-11-18T11:02:39.234Z,784.00
2022-11-18T11:03:39.181Z,732.00
2022-11-18T11:04:39.188Z,684.00
2022-11-18T11:05:39.157Z,668.00
2022-11-18T11:06:39.175Z,632.00
2022-11-18T11:07:39.140Z,648.00
2022-11-18T11:08:39.051Z,592.00
2022-11-18T11:09:39.067Z,576.00
2022-11-18T11:10:39.119Z,576.00
2022-11-18T11:11:38.992Z,624.00
2022-11-18T11:12:39.165Z,600.00
2022-11-18T11:13:39.004Z,636.00
2022-11-18T11:14:39.052Z,620.00
2022-11-18T11:15:38.948Z,636.00
2022-11-18T11:16:38.965Z,616.00
2022-11-18T11:17:38.991Z,632.00
2022-11-18T11:18:38.927Z,660.00
2022-11-18T11:19:38.896Z,640.00
2022-11-18T11:20:38.939Z,612.00
2022-11-18T11:21:38.850Z,568.00
2022-11-18T11:22:38.806Z,628.00
2022-11-18T11:23:38.956Z,660.00
2022-11-18T11:24:38.858Z,680.00
2022-11-18T11:28:38.720Z,652.00
2022-11-18T11:29:38.709Z,748.00
2022-11-18T11:30:40.859Z,684.00
2022-11-18T11:31:38.665Z,668.00
2022-11-18T11:32:38.657Z,644.00
2022-11-18T11:33:38.640Z,784.00
2022-11-18T11:34:38.649Z,788.00
2022-11-18T11:35:38.639Z,764.00
2022-11-18T11:36:38.682Z,760.00
2022-11-18T11:37:38.591Z,752.00
2022-11-18T11:38:38.565Z,708.00
2022-11-18T11:39:38.514Z,704.00
2022-11-18T11:40:38.590Z,704.00
2022-11-18T11:41:38.474Z,712.00
2022-11-18T11:42:38.469Z,644.00
2022-11-18T11:43:38.367Z,672.00
2022-11-18T11:44:38.429Z,652.00
2022-11-18T11:45:38.437Z,664.00
2022-11-18T11:46:38.401Z,720.00
2022-11-18T11:47:38.377Z,696.00
2022-11-18T11:48:38.349Z,704.00
2022-11-18T11:49:38.320Z,800.00
2022-11-18T11:50:38.347Z,820.00
2022-11-18T11:51:38.310Z,804.00
2022-11-18T11:52:38.394Z,824.00
2022-11-18T11:53:38.162Z,864.00
2022-11-18T11:54:38.138Z,852.00
2022-11-18T11:55:38.118Z,872.00
2022-11-18T11:56:38.098Z,936.00
2022-11-18T11:57:38.077Z,968.00
2022-11-18T11:58:38.190Z,928.00
2022-11-18T11:59:38.107Z,960.00
2022-11-18T12:00:38.022Z,948.00
2022-11-18T12:01:38.048Z,1068.00
2022-11-18T12:02:38.040Z,940.00
2022-11-18T12:03:37.966Z,904.00
2022-11-18T12:04:37.953Z,964.00
2022-11-18T12:05:37.927Z,1008.00
2022-11-18T12:06:37.918Z,940.00
2022-11-18T12:07:38.049Z,860.00
2022-11-18T12:08:37.873Z,956.00
2022-11-18T12:09:37.854Z,944.00
2022-11-18T12:10:37.836Z,952.00
2022-11-18T12:11:37.881Z,860.00
2022-11-18T12:12:37.803Z,900.00
2022-11-18T12:13:37.942Z,968.00
2022-11-18T12:14:40.050Z,888.00
2022-11-18T12:15:37.752Z,892.00
2022-11-18T12:16:37.730Z,904.00
2022-11-18T12:17:37.716Z,1000.00
2022-11-18T12:18:37.732Z,968.00
2022-11-18T12:19:37.665Z,1116.00
2022-11-18T12:20:37.663Z,884.00
2022-11-18T12:21:37.628Z,992.00
2022-11-18T12:22:37.610Z,1024.00
2022-11-18T12:23:37.655Z,972.00
2022-11-18T12:24:37.579Z,936.00
2022-11-18T12:25:37.553Z,972.00
2022-11-18T12:26:37.559Z,968.00
2022-11-18T12:27:37.514Z,932.00
2022-11-18T12:28:37.496Z,984.00
2022-11-18T12:29:37.512Z,1060.00
2022-11-18T12:30:37.477Z,920.00
2022-11-18T12:31:37.463Z,856.00
2022-11-18T12:32:37.428Z,772.00
2022-11-18T12:33:37.401Z,800.00
2022-11-18T12:34:37.393Z,836.00
2022-11-18T12:35:37.365Z,756.00
2022-11-18T12:36:37.346Z,692.00
2022-11-18T12:37:37.372Z,924.00
2022-11-18T12:38:37.307Z,804.00
2022-11-18T12:39:37.295Z,876.00
2022-11-18T12:40:37.278Z,964.00
2022-11-18T12:41:37.264Z,808.00
2022-11-18T12:42:37.233Z,828.00
2022-11-18T12:43:37.324Z,968.00
2022-11-18T12:44:37.301Z,912.00
2022-11-18T12:45:37.300Z,1024.00
2022-11-18T12:46:40.123Z,876.00
2022-11-18T12:47:37.187Z,820.00
2022-11-18T12:48:37.402Z,972.00
2022-11-18T12:49:37.253Z,952.00
2022-11-18T12:50:37.356Z,880.00
2022-11-18T12:51:37.222Z,876.00
2022-11-18T12:52:37.173Z,1000.00
2022-11-18T12:53:37.261Z,1012.00
2022-11-18T12:54:37.159Z,944.00
2022-11-18T12:55:37.119Z,848.00